sensor_id;sensor_type;location;lat;lon;timestamp;temperature;humidity
52513;DHT22;38422;53.172;6.974;2024-01-07T00:03:48;0.40;99.90
52513;DHT22;38422;53.172;6.974;2024-01-07T00:13:06;0.40;99.90
52513;DHT22;38422;53.172;6.974;2024-01-07T00:15:32;0.40;99.90
52513;DHT22;38422;53.172;6.974;2024-01-07T00:30:31;0.30;99.90
52513;DHT22;38422;53.172;6.974;2024-01-07T00:54:55;0.20;99.90
52513;DHT22;38422;53.172;6.974;2024-01-07T01:01:06;0.20;99.90
52513;DHT22;38422;53.172;6.974;2024-01-07T01:07:14;0.20;99.90
52513;DHT22;38422;53.172;6.974;2024-01-07T01:13:29;0.20;99.90
52513;DHT22;38422;53.172;6.974;2024-01-07T01:15:55;0.20;99.90
52513;DHT22;38422;53.172;6.974;2024-01-07T01:18:21;0.20;99.90
52513;DHT22;38422;53.172;6.974;2024-01-07T01:20:46;0.20;99.90
52513;DHT22;38422;53.172;6.974;2024-01-07T01:23:12;0.20;99.90
52513;DHT22;38422;53.172;6.974;2024-01-07T01:25:42;0.20;99.90
52513;DHT22;38422;53.172;6.974;2024-01-07T01:28:08;0.20;99.90
52513;DHT22;38422;53.172;6.974;2024-01-07T01:30:34;0.20;99.90
52513;DHT22;38422;53.172;6.974;2024-01-07T01:33:02;0.20;99.90
52513;DHT22;38422;53.172;6.974;2024-01-07T01:39:09;0.20;99.90
52513;DHT22;38422;53.172;6.974;2024-01-07T01:41:35;0.20;99.90
52513;DHT22;38422;53.172;6.974;2024-01-07T01:44:00;0.20;99.90
52513;DHT22;38422;53.172;6.974;2024-01-07T01:46:28;0.20;99.90
52513;DHT22;38422;53.172;6.974;2024-01-07T01:48:54;0.20;99.90
52513;DHT22;38422;53.172;6.974;2024-01-07T01:51:21;0.20;99.90
52513;DHT22;38422;53.172;6.974;2024-01-07T01:53:47;0.20;99.90
52513;DHT22;38422;53.172;6.974;2024-01-07T01:56:14;0.10;99.90
52513;DHT22;38422;53.172;6.974;2024-01-07T01:58:45;0.20;99.90
52513;DHT22;38422;53.172;6.974;2024-01-07T02:01:11;0.20;99.90
52513;DHT22;38422;53.172;6.974;2024-01-07T02:03:37;0.20;99.90
52513;DHT22;38422;53.172;6.974;2024-01-07T02:06:04;0.20;99.90
52513;DHT22;38422;53.172;6.974;2024-01-07T02:08:30;0.10;99.90
52513;DHT22;38422;53.172;6.974;2024-01-07T02:10:56;0.20;99.90
52513;DHT22;38422;53.172;6.974;2024-01-07T02:13:46;0.20;99.90
52513;DHT22;38422;53.172;6.974;2024-01-07T02:31:28;0.10;99.90
52513;DHT22;38422;53.172;6.974;2024-01-07T02:33:54;0.10;99.90
52513;DHT22;38422;53.172;6.974;2024-01-07T02:36:19;0.10;99.90
52513;DHT22;38422;53.172;6.974;2024-01-07T02:39:02;0.10;99.90
52513;DHT22;38422;53.172;6.974;2024-01-07T02:49:12;0.10;99.90
52513;DHT22;38422;53.172;6.974;2024-01-07T02:51:38;0.10;99.90
52513;DHT22;38422;53.172;6.974;2024-01-07T03:05:20;0.00;99.90
52513;DHT22;38422;53.172;6.974;2024-01-07T03:11:40;0.10;99.90
52513;DHT22;38422;53.172;6.974;2024-01-07T03:54:42;0.10;99.90
52513;DHT22;38422;53.172;6.974;2024-01-07T04:28:04;0.10;99.90
52513;DHT22;38422;53.172;6.974;2024-01-07T04:31:01;0.10;99.90
52513;DHT22;38422;53.172;6.974;2024-01-07T04:37:28;0.00;99.90
52513;DHT22;38422;53.172;6.974;2024-01-07T05:01:49;0.00;99.90
52513;DHT22;38422;53.172;6.974;2024-01-07T05:19:23;0.10;99.90
52513;DHT22;38422;53.172;6.974;2024-01-07T06:10:54;0.00;99.90
52513;DHT22;38422;53.172;6.974;2024-01-07T08:24:04;-0.20;99.90
52513;DHT22;38422;53.172;6.974;2024-01-07T08:26:48;-0.20;99.90
52513;DHT22;38422;53.172;6.974;2024-01-07T08:36:13;-0.10;99.90
52513;DHT22;38422;53.172;6.974;2024-01-07T08:38:38;0.00;99.90
52513;DHT22;38422;53.172;6.974;2024-01-07T08:48:50;0.10;99.90
52513;DHT22;38422;53.172;6.974;2024-01-07T08:51:16;0.00;99.90
52513;DHT22;38422;53.172;6.974;2024-01-07T08:53:42;0.10;99.90
52513;DHT22;38422;53.172;6.974;2024-01-07T08:56:07;0.10;99.90
52513;DHT22;38422;53.172;6.974;2024-01-07T08:58:34;0.10;99.90
52513;DHT22;38422;53.172;6.974;2024-01-07T09:01:00;0.10;99.90
52513;DHT22;38422;53.172;6.974;2024-01-07T09:03:26;0.20;99.90
52513;DHT22;38422;53.172;6.974;2024-01-07T09:05:51;0.20;99.90
52513;DHT22;38422;53.172;6.974;2024-01-07T09:08:17;0.20;99.90
52513;DHT22;38422;53.172;6.974;2024-01-07T09:10:48;0.10;99.90
52513;DHT22;38422;53.172;6.974;2024-01-07T09:17:18;0.20;99.90
52513;DHT22;38422;53.172;6.974;2024-01-07T09:19:45;0.20;99.90
52513;DHT22;38422;53.172;6.974;2024-01-07T09:22:10;0.30;99.90
52513;DHT22;38422;53.172;6.974;2024-01-07T09:24:37;0.20;99.90
52513;DHT22;38422;53.172;6.974;2024-01-07T09:27:03;0.30;99.90
52513;DHT22;38422;53.172;6.974;2024-01-07T09:29:28;0.30;99.90
52513;DHT22;38422;53.172;6.974;2024-01-07T09:31:54;0.30;99.90
52513;DHT22;38422;53.172;6.974;2024-01-07T09:34:20;0.30;99.90
52513;DHT22;38422;53.172;6.974;2024-01-07T09:36:45;0.30;99.90
52513;DHT22;38422;53.172;6.974;2024-01-07T09:39:11;0.30;99.90
52513;DHT22;38422;53.172;6.974;2024-01-07T09:41:37;0.40;99.90
52513;DHT22;38422;53.172;6.974;2024-01-07T09:44:03;0.40;99.90
52513;DHT22;38422;53.172;6.974;2024-01-07T09:46:29;0.40;99.90
52513;DHT22;38422;53.172;6.974;2024-01-07T09:48:57;0.40;99.90
52513;DHT22;38422;53.172;6.974;2024-01-07T09:51:23;0.50;99.90
52513;DHT22;38422;53.172;6.974;2024-01-07T09:53:52;0.40;99.90
52513;DHT22;38422;53.172;6.974;2024-01-07T09:56:38;0.50;99.90
52513;DHT22;38422;53.172;6.974;2024-01-07T09:59:08;0.50;99.90
52513;DHT22;38422;53.172;6.974;2024-01-07T10:01:34;0.50;99.90
52513;DHT22;38422;53.172;6.974;2024-01-07T10:04:01;0.50;99.90
52513;DHT22;38422;53.172;6.974;2024-01-07T10:06:27;0.60;99.90
52513;DHT22;38422;53.172;6.974;2024-01-07T10:09:17;0.60;99.90
52513;DHT22;38422;53.172;6.974;2024-01-07T10:11:44;0.60;99.90
52513;DHT22;38422;53.172;6.974;2024-01-07T10:14:10;0.60;99.90
52513;DHT22;38422;53.172;6.974;2024-01-07T10:16:36;0.60;99.90
52513;DHT22;38422;53.172;6.974;2024-01-07T10:19:02;0.60;99.90
52513;DHT22;38422;53.172;6.974;2024-01-07T10:21:27;0.70;99.90
52513;DHT22;38422;53.172;6.974;2024-01-07T10:28:34;0.70;99.90
52513;DHT22;38422;53.172;6.974;2024-01-07T10:31:00;0.80;99.90
52513;DHT22;38422;53.172;6.974;2024-01-07T10:33:31;0.80;99.90
52513;DHT22;38422;53.172;6.974;2024-01-07T10:36:02;0.80;99.90
52513;DHT22;38422;53.172;6.974;2024-01-07T10:38:31;0.80;99.90
52513;DHT22;38422;53.172;6.974;2024-01-07T10:40:59;0.90;99.90
52513;DHT22;38422;53.172;6.974;2024-01-07T10:43:26;1.00;99.90
52513;DHT22;38422;53.172;6.974;2024-01-07T10:45:54;1.00;99.90
52513;DHT22;38422;53.172;6.974;2024-01-07T10:48:20;1.00;99.90
52513;DHT22;38422;53.172;6.974;2024-01-07T10:50:47;1.10;99.90
52513;DHT22;38422;53.172;6.974;2024-01-07T10:53:18;1.10;99.90
52513;DHT22;38422;53.172;6.974;2024-01-07T10:56:05;1.10;99.90
52513;DHT22;38422;53.172;6.974;2024-01-07T10:58:33;1.10;99.90
52513;DHT22;38422;53.172;6.974;2024-01-07T11:01:02;1.20;99.90
52513;DHT22;38422;53.172;6.974;2024-01-07T11:03:40;1.20;99.90
52513;DHT22;38422;53.172;6.974;2024-01-07T11:09:12;1.10;99.90
52513;DHT22;38422;53.172;6.974;2024-01-07T11:11:40;1.20;99.90
52513;DHT22;38422;53.172;6.974;2024-01-07T11:14:41;1.30;99.90
52513;DHT22;38422;53.172;6.974;2024-01-07T11:17:11;1.40;99.90
52513;DHT22;38422;53.172;6.974;2024-01-07T11:19:37;1.40;99.90
52513;DHT22;38422;53.172;6.974;2024-01-07T11:22:24;1.60;99.90
52513;DHT22;38422;53.172;6.974;2024-01-07T11:24:51;1.70;99.90
52513;DHT22;38422;53.172;6.974;2024-01-07T11:27:17;1.80;99.90
52513;DHT22;38422;53.172;6.974;2024-01-07T11:29:43;2.00;99.90
52513;DHT22;38422;53.172;6.974;2024-01-07T11:32:12;2.10;99.90
52513;DHT22;38422;53.172;6.974;2024-01-07T11:34:42;2.20;99.90
52513;DHT22;38422;53.172;6.974;2024-01-07T11:37:12;2.30;99.90
52513;DHT22;38422;53.172;6.974;2024-01-07T11:39:42;2.40;99.90
52513;DHT22;38422;53.172;6.974;2024-01-07T11:42:09;2.50;99.90
52513;DHT22;38422;53.172;6.974;2024-01-07T11:44:35;2.50;99.90
52513;DHT22;38422;53.172;6.974;2024-01-07T11:47:03;2.60;99.90
52513;DHT22;38422;53.172;6.974;2024-01-07T11:49:29;2.60;99.90
52513;DHT22;38422;53.172;6.974;2024-01-07T11:51:55;2.60;99.90
52513;DHT22;38422;53.172;6.974;2024-01-07T11:54:20;2.60;99.90
52513;DHT22;38422;53.172;6.974;2024-01-07T11:56:46;2.60;99.90
52513;DHT22;38422;53.172;6.974;2024-01-07T11:59:12;2.50;99.90
52513;DHT22;38422;53.172;6.974;2024-01-07T12:01:40;2.40;99.90
52513;DHT22;38422;53.172;6.974;2024-01-07T12:04:06;2.30;99.90
52513;DHT22;38422;53.172;6.974;2024-01-07T12:06:33;2.20;99.90
52513;DHT22;38422;53.172;6.974;2024-01-07T12:08:59;2.10;99.90
52513;DHT22;38422;53.172;6.974;2024-01-07T12:11:25;2.00;99.90
52513;DHT22;38422;53.172;6.974;2024-01-07T12:13:51;2.00;99.90
52513;DHT22;38422;53.172;6.974;2024-01-07T12:16:17;1.90;99.90
52513;DHT22;38422;53.172;6.974;2024-01-07T12:18:43;1.90;99.90
52513;DHT22;38422;53.172;6.974;2024-01-07T12:21:08;2.00;99.90
52513;DHT22;38422;53.172;6.974;2024-01-07T12:23:37;2.00;99.90
52513;DHT22;38422;53.172;6.974;2024-01-07T12:26:10;2.10;99.90
52513;DHT22;38422;53.172;6.974;2024-01-07T12:28:37;2.10;99.90
52513;DHT22;38422;53.172;6.974;2024-01-07T12:31:07;2.10;99.90
52513;DHT22;38422;53.172;6.974;2024-01-07T12:33:33;2.00;99.90
52513;DHT22;38422;53.172;6.974;2024-01-07T12:35:59;2.00;99.90
52513;DHT22;38422;53.172;6.974;2024-01-07T12:38:26;1.90;99.90
52513;DHT22;38422;53.172;6.974;2024-01-07T12:40:53;1.90;99.90
52513;DHT22;38422;53.172;6.974;2024-01-07T12:43:18;1.80;99.90
52513;DHT22;38422;53.172;6.974;2024-01-07T12:45:44;1.70;99.90
52513;DHT22;38422;53.172;6.974;2024-01-07T12:48:12;1.60;99.90
52513;DHT22;38422;53.172;6.974;2024-01-07T12:50:38;1.60;99.90
52513;DHT22;38422;53.172;6.974;2024-01-07T12:53:04;1.50;99.90
52513;DHT22;38422;53.172;6.974;2024-01-07T12:55:31;1.40;99.90
52513;DHT22;38422;53.172;6.974;2024-01-07T12:57:57;1.40;99.90
52513;DHT22;38422;53.172;6.974;2024-01-07T13:00:24;1.40;99.90
52513;DHT22;38422;53.172;6.974;2024-01-07T13:02:50;1.40;99.90
52513;DHT22;38422;53.172;6.974;2024-01-07T13:05:16;1.40;99.90
52513;DHT22;38422;53.172;6.974;2024-01-07T13:07:42;1.40;99.90
52513;DHT22;38422;53.172;6.974;2024-01-07T13:10:08;1.40;99.90
52513;DHT22;38422;53.172;6.974;2024-01-07T13:12:35;1.40;99.90
52513;DHT22;38422;53.172;6.974;2024-01-07T13:15:02;1.40;99.90
52513;DHT22;38422;53.172;6.974;2024-01-07T13:17:28;1.40;99.90
52513;DHT22;38422;53.172;6.974;2024-01-07T13:19:56;1.40;99.90
52513;DHT22;38422;53.172;6.974;2024-01-07T13:22:21;1.40;99.90
52513;DHT22;38422;53.172;6.974;2024-01-07T13:24:47;1.50;99.90
52513;DHT22;38422;53.172;6.974;2024-01-07T13:27:13;1.60;99.90
52513;DHT22;38422;53.172;6.974;2024-01-07T13:29:38;1.80;99.90
52513;DHT22;38422;53.172;6.974;2024-01-07T13:32:04;1.90;99.90
52513;DHT22;38422;53.172;6.974;2024-01-07T13:34:30;2.00;99.90
52513;DHT22;38422;53.172;6.974;2024-01-07T13:36:56;2.10;99.90
52513;DHT22;38422;53.172;6.974;2024-01-07T13:39:22;2.30;99.90
52513;DHT22;38422;53.172;6.974;2024-01-07T13:41:47;2.30;99.90
52513;DHT22;38422;53.172;6.974;2024-01-07T13:44:13;2.40;99.90
52513;DHT22;38422;53.172;6.974;2024-01-07T13:46:46;2.40;99.90
52513;DHT22;38422;53.172;6.974;2024-01-07T13:49:15;2.50;99.90
52513;DHT22;38422;53.172;6.974;2024-01-07T13:51:41;2.60;99.90
52513;DHT22;38422;53.172;6.974;2024-01-07T13:54:07;2.60;99.90
52513;DHT22;38422;53.172;6.974;2024-01-07T13:56:35;2.60;99.90
52513;DHT22;38422;53.172;6.974;2024-01-07T13:59:02;2.60;99.90
52513;DHT22;38422;53.172;6.974;2024-01-07T14:01:31;2.60;99.90
52513;DHT22;38422;53.172;6.974;2024-01-07T14:03:57;2.50;99.90
52513;DHT22;38422;53.172;6.974;2024-01-07T14:06:22;2.50;99.90
52513;DHT22;38422;53.172;6.974;2024-01-07T14:08:48;2.40;99.90
52513;DHT22;38422;53.172;6.974;2024-01-07T14:11:14;2.40;99.90
52513;DHT22;38422;53.172;6.974;2024-01-07T14:13:39;2.30;99.90
52513;DHT22;38422;53.172;6.974;2024-01-07T14:16:05;2.20;99.90
52513;DHT22;38422;53.172;6.974;2024-01-07T14:18:32;2.20;99.90
52513;DHT22;38422;53.172;6.974;2024-01-07T14:20:58;2.20;99.90
52513;DHT22;38422;53.172;6.974;2024-01-07T14:23:23;2.10;99.90
52513;DHT22;38422;53.172;6.974;2024-01-07T14:25:49;2.00;99.90
52513;DHT22;38422;53.172;6.974;2024-01-07T14:28:15;2.00;99.90
52513;DHT22;38422;53.172;6.974;2024-01-07T14:30:41;1.90;99.90
52513;DHT22;38422;53.172;6.974;2024-01-07T14:33:06;1.90;99.90
52513;DHT22;38422;53.172;6.974;2024-01-07T14:35:32;1.80;99.90
52513;DHT22;38422;53.172;6.974;2024-01-07T14:37:59;1.70;99.90
52513;DHT22;38422;53.172;6.974;2024-01-07T14:40:26;1.70;99.90
52513;DHT22;38422;53.172;6.974;2024-01-07T14:42:51;1.70;99.90
52513;DHT22;38422;53.172;6.974;2024-01-07T14:45:26;1.70;99.90
52513;DHT22;38422;53.172;6.974;2024-01-07T14:47:53;1.60;99.90
52513;DHT22;38422;53.172;6.974;2024-01-07T14:50:19;1.60;99.90
52513;DHT22;38422;53.172;6.974;2024-01-07T14:52:45;1.60;99.90
52513;DHT22;38422;53.172;6.974;2024-01-07T14:55:11;1.60;99.90
52513;DHT22;38422;53.172;6.974;2024-01-07T14:57:41;1.50;99.90
52513;DHT22;38422;53.172;6.974;2024-01-07T15:00:07;1.50;99.90
52513;DHT22;38422;53.172;6.974;2024-01-07T15:02:34;1.50;99.90
52513;DHT22;38422;53.172;6.974;2024-01-07T15:05:00;1.50;99.90
52513;DHT22;38422;53.172;6.974;2024-01-07T15:07:26;1.50;99.90
52513;DHT22;38422;53.172;6.974;2024-01-07T15:09:52;1.40;99.90
52513;DHT22;38422;53.172;6.974;2024-01-07T15:12:18;1.40;99.90
52513;DHT22;38422;53.172;6.974;2024-01-07T15:14:44;1.30;99.90
52513;DHT22;38422;53.172;6.974;2024-01-07T15:17:10;1.30;99.90
52513;DHT22;38422;53.172;6.974;2024-01-07T15:19:35;1.30;99.90
52513;DHT22;38422;53.172;6.974;2024-01-07T15:22:01;1.20;99.90
52513;DHT22;38422;53.172;6.974;2024-01-07T15:24:28;1.10;99.90
52513;DHT22;38422;53.172;6.974;2024-01-07T15:26:54;1.10;99.90
52513;DHT22;38422;53.172;6.974;2024-01-07T15:29:19;1.10;99.90
52513;DHT22;38422;53.172;6.974;2024-01-07T15:31:45;1.00;99.90
52513;DHT22;38422;53.172;6.974;2024-01-07T15:34:11;1.00;99.90
52513;DHT22;38422;53.172;6.974;2024-01-07T15:36:38;1.00;99.90
52513;DHT22;38422;53.172;6.974;2024-01-07T15:39:03;0.90;99.90
52513;DHT22;38422;53.172;6.974;2024-01-07T15:41:30;0.90;99.90
52513;DHT22;38422;53.172;6.974;2024-01-07T15:43:56;0.80;99.90
52513;DHT22;38422;53.172;6.974;2024-01-07T15:46:23;0.80;99.90
52513;DHT22;38422;53.172;6.974;2024-01-07T15:48:49;0.80;99.90
52513;DHT22;38422;53.172;6.974;2024-01-07T15:51:15;0.70;99.90
52513;DHT22;38422;53.172;6.974;2024-01-07T15:53:40;0.70;99.90
52513;DHT22;38422;53.172;6.974;2024-01-07T15:56:06;0.70;99.90
52513;DHT22;38422;53.172;6.974;2024-01-07T15:58:32;0.70;99.90
52513;DHT22;38422;53.172;6.974;2024-01-07T16:01:00;0.60;99.90
52513;DHT22;38422;53.172;6.974;2024-01-07T16:03:28;0.60;99.90
52513;DHT22;38422;53.172;6.974;2024-01-07T16:05:53;0.60;99.90
52513;DHT22;38422;53.172;6.974;2024-01-07T16:08:19;0.60;99.90
52513;DHT22;38422;53.172;6.974;2024-01-07T16:10:48;0.60;99.90
52513;DHT22;38422;53.172;6.974;2024-01-07T16:13:14;0.50;99.90
52513;DHT22;38422;53.172;6.974;2024-01-07T16:15:40;0.50;99.90
52513;DHT22;38422;53.172;6.974;2024-01-07T16:18:05;0.40;99.90
52513;DHT22;38422;53.172;6.974;2024-01-07T16:20:31;0.40;99.90
52513;DHT22;38422;53.172;6.974;2024-01-07T16:22:57;0.40;99.90
52513;DHT22;38422;53.172;6.974;2024-01-07T16:25:23;0.40;99.90
52513;DHT22;38422;53.172;6.974;2024-01-07T16:27:48;0.40;99.90
52513;DHT22;38422;53.172;6.974;2024-01-07T16:30:14;0.40;99.90
52513;DHT22;38422;53.172;6.974;2024-01-07T16:32:40;0.40;99.90
52513;DHT22;38422;53.172;6.974;2024-01-07T16:35:06;0.30;99.90
52513;DHT22;38422;53.172;6.974;2024-01-07T16:37:32;0.30;99.90
52513;DHT22;38422;53.172;6.974;2024-01-07T16:39:58;0.30;99.90
52513;DHT22;38422;53.172;6.974;2024-01-07T16:42:23;0.30;99.90
52513;DHT22;38422;53.172;6.974;2024-01-07T16:44:49;0.30;99.90
52513;DHT22;38422;53.172;6.974;2024-01-07T16:47:16;0.20;99.90
52513;DHT22;38422;53.172;6.974;2024-01-07T16:49:41;0.20;99.90
52513;DHT22;38422;53.172;6.974;2024-01-07T16:52:07;0.20;99.90
52513;DHT22;38422;53.172;6.974;2024-01-07T16:54:33;0.10;99.90
52513;DHT22;38422;53.172;6.974;2024-01-07T16:57:00;0.20;99.90
52513;DHT22;38422;53.172;6.974;2024-01-07T16:59:26;0.10;99.90
52513;DHT22;38422;53.172;6.974;2024-01-07T17:01:51;0.10;99.90
52513;DHT22;38422;53.172;6.974;2024-01-07T17:04:17;0.10;99.90
52513;DHT22;38422;53.172;6.974;2024-01-07T17:06:45;0.10;99.90
52513;DHT22;38422;53.172;6.974;2024-01-07T17:09:11;0.10;99.90
52513;DHT22;38422;53.172;6.974;2024-01-07T17:11:37;0.00;99.90
52513;DHT22;38422;53.172;6.974;2024-01-07T17:14:04;0.00;99.90
52513;DHT22;38422;53.172;6.974;2024-01-07T17:16:29;0.00;99.90
52513;DHT22;38422;53.172;6.974;2024-01-07T17:18:56;0.00;99.90
52513;DHT22;38422;53.172;6.974;2024-01-07T17:21:21;0.00;99.90
52513;DHT22;38422;53.172;6.974;2024-01-07T17:23:47;0.00;99.90
52513;DHT22;38422;53.172;6.974;2024-01-07T17:26:20;0.00;99.90
52513;DHT22;38422;53.172;6.974;2024-01-07T17:28:47;-0.10;99.90
52513;DHT22;38422;53.172;6.974;2024-01-07T17:31:13;-0.10;99.90
52513;DHT22;38422;53.172;6.974;2024-01-07T17:33:39;-0.10;99.90
52513;DHT22;38422;53.172;6.974;2024-01-07T17:36:05;-0.20;99.90
52513;DHT22;38422;53.172;6.974;2024-01-07T17:38:32;-0.20;99.90
52513;DHT22;38422;53.172;6.974;2024-01-07T17:40:58;-0.20;99.90
52513;DHT22;38422;53.172;6.974;2024-01-07T17:43:24;-0.20;99.90
52513;DHT22;38422;53.172;6.974;2024-01-07T17:45:51;-0.20;99.90
52513;DHT22;38422;53.172;6.974;2024-01-07T17:48:17;-0.20;99.90
52513;DHT22;38422;53.172;6.974;2024-01-07T17:50:43;-0.30;99.90
52513;DHT22;38422;53.172;6.974;2024-01-07T17:53:11;-0.30;99.90
52513;DHT22;38422;53.172;6.974;2024-01-07T17:55:41;-0.30;99.90
52513;DHT22;38422;53.172;6.974;2024-01-07T17:58:07;-0.30;99.90
52513;DHT22;38422;53.172;6.974;2024-01-07T18:00:33;-0.30;99.90
52513;DHT22;38422;53.172;6.974;2024-01-07T18:03:00;-0.30;99.90
52513;DHT22;38422;53.172;6.974;2024-01-07T18:05:35;-0.30;99.90
52513;DHT22;38422;53.172;6.974;2024-01-07T18:08:02;-0.30;99.90
52513;DHT22;38422;53.172;6.974;2024-01-07T18:10:28;-0.30;99.90
52513;DHT22;38422;53.172;6.974;2024-01-07T18:12:54;-0.30;99.90
52513;DHT22;38422;53.172;6.974;2024-01-07T18:15:23;-0.30;99.90
52513;DHT22;38422;53.172;6.974;2024-01-07T18:17:49;-0.30;99.90
52513;DHT22;38422;53.172;6.974;2024-01-07T18:20:17;-0.30;99.90
52513;DHT22;38422;53.172;6.974;2024-01-07T18:22:42;-0.30;99.90
52513;DHT22;38422;53.172;6.974;2024-01-07T18:25:09;-0.30;99.90
52513;DHT22;38422;53.172;6.974;2024-01-07T18:27:34;-0.30;99.90
52513;DHT22;38422;53.172;6.974;2024-01-07T18:30:02;-0.30;99.90
52513;DHT22;38422;53.172;6.974;2024-01-07T18:32:28;-0.40;99.90
52513;DHT22;38422;53.172;6.974;2024-01-07T18:34:54;-0.30;99.90
52513;DHT22;38422;53.172;6.974;2024-01-07T18:37:19;-0.30;99.90
52513;DHT22;38422;53.172;6.974;2024-01-07T18:39:49;-0.40;99.90
52513;DHT22;38422;53.172;6.974;2024-01-07T18:42:15;-0.30;99.90
52513;DHT22;38422;53.172;6.974;2024-01-07T18:44:42;-0.30;99.90
52513;DHT22;38422;53.172;6.974;2024-01-07T18:47:07;-0.30;99.90
52513;DHT22;38422;53.172;6.974;2024-01-07T18:49:40;-0.30;99.90
52513;DHT22;38422;53.172;6.974;2024-01-07T18:52:07;-0.20;99.90
52513;DHT22;38422;53.172;6.974;2024-01-07T18:54:44;-0.20;99.90
52513;DHT22;38422;53.172;6.974;2024-01-07T18:57:10;-0.30;99.90
52513;DHT22;38422;53.172;6.974;2024-01-07T18:59:38;-0.30;99.90
52513;DHT22;38422;53.172;6.974;2024-01-07T19:02:05;-0.30;99.90
52513;DHT22;38422;53.172;6.974;2024-01-07T19:04:30;-0.40;99.90
52513;DHT22;38422;53.172;6.974;2024-01-07T19:06:59;-0.40;99.90
52513;DHT22;38422;53.172;6.974;2024-01-07T19:09:25;-0.40;99.90
52513;DHT22;38422;53.172;6.974;2024-01-07T19:11:51;-0.40;99.90
52513;DHT22;38422;53.172;6.974;2024-01-07T19:14:17;-0.40;99.90
52513;DHT22;38422;53.172;6.974;2024-01-07T19:16:43;-0.40;99.90
52513;DHT22;38422;53.172;6.974;2024-01-07T19:19:08;-0.40;99.90
52513;DHT22;38422;53.172;6.974;2024-01-07T19:21:34;-0.50;99.90
52513;DHT22;38422;53.172;6.974;2024-01-07T19:24:00;-0.50;99.90
52513;DHT22;38422;53.172;6.974;2024-01-07T19:26:30;-0.50;99.90
52513;DHT22;38422;53.172;6.974;2024-01-07T19:28:56;-0.50;99.90
52513;DHT22;38422;53.172;6.974;2024-01-07T19:31:23;-0.50;99.90
52513;DHT22;38422;53.172;6.974;2024-01-07T19:33:52;-0.50;99.90
52513;DHT22;38422;53.172;6.974;2024-01-07T19:36:20;-0.50;99.90
52513;DHT22;38422;53.172;6.974;2024-01-07T19:38:46;-0.40;99.90
52513;DHT22;38422;53.172;6.974;2024-01-07T19:41:23;-0.50;99.90
52513;DHT22;38422;53.172;6.974;2024-01-07T19:43:49;-0.50;99.90
52513;DHT22;38422;53.172;6.974;2024-01-07T19:46:23;-0.50;99.90
52513;DHT22;38422;53.172;6.974;2024-01-07T19:48:50;-0.40;99.90
52513;DHT22;38422;53.172;6.974;2024-01-07T19:51:18;-0.40;99.90
52513;DHT22;38422;53.172;6.974;2024-01-07T19:53:43;-0.50;99.90
52513;DHT22;38422;53.172;6.974;2024-01-07T19:56:09;-0.50;99.90
52513;DHT22;38422;53.172;6.974;2024-01-07T19:58:35;-0.50;99.90
52513;DHT22;38422;53.172;6.974;2024-01-07T20:01:00;-0.40;99.90
52513;DHT22;38422;53.172;6.974;2024-01-07T20:03:26;-0.40;99.90
52513;DHT22;38422;53.172;6.974;2024-01-07T20:05:52;-0.50;99.90
52513;DHT22;38422;53.172;6.974;2024-01-07T20:08:18;-0.40;99.90
52513;DHT22;38422;53.172;6.974;2024-01-07T20:10:45;-0.40;99.90
52513;DHT22;38422;53.172;6.974;2024-01-07T20:13:11;-0.50;99.90
52513;DHT22;38422;53.172;6.974;2024-01-07T20:15:37;-0.50;99.90
52513;DHT22;38422;53.172;6.974;2024-01-07T20:18:03;-0.50;99.90
52513;DHT22;38422;53.172;6.974;2024-01-07T20:20:29;-0.60;99.90
52513;DHT22;38422;53.172;6.974;2024-01-07T20:22:54;-0.50;99.90
52513;DHT22;38422;53.172;6.974;2024-01-07T20:25:21;-0.50;99.90
52513;DHT22;38422;53.172;6.974;2024-01-07T20:27:46;-0.60;99.90
52513;DHT22;38422;53.172;6.974;2024-01-07T20:30:12;-0.50;99.90
52513;DHT22;38422;53.172;6.974;2024-01-07T20:32:40;-0.60;99.90
52513;DHT22;38422;53.172;6.974;2024-01-07T20:35:06;-0.60;99.90
52513;DHT22;38422;53.172;6.974;2024-01-07T20:37:32;-0.60;99.90
52513;DHT22;38422;53.172;6.974;2024-01-07T20:39:58;-0.60;99.90
52513;DHT22;38422;53.172;6.974;2024-01-07T20:42:23;-0.70;99.90
52513;DHT22;38422;53.172;6.974;2024-01-07T20:44:49;-0.70;99.90
52513;DHT22;38422;53.172;6.974;2024-01-07T20:47:15;-0.70;99.90
52513;DHT22;38422;53.172;6.974;2024-01-07T20:49:41;-0.70;99.90
52513;DHT22;38422;53.172;6.974;2024-01-07T20:52:06;-0.80;99.90
52513;DHT22;38422;53.172;6.974;2024-01-07T20:54:32;-0.70;99.90
52513;DHT22;38422;53.172;6.974;2024-01-07T20:56:58;-0.70;99.90
52513;DHT22;38422;53.172;6.974;2024-01-07T20:59:23;-0.70;99.90
52513;DHT22;38422;53.172;6.974;2024-01-07T21:01:49;-0.70;99.90
52513;DHT22;38422;53.172;6.974;2024-01-07T21:04:15;-0.70;99.90
52513;DHT22;38422;53.172;6.974;2024-01-07T21:06:42;-0.70;99.90
52513;DHT22;38422;53.172;6.974;2024-01-07T21:09:07;-0.70;99.90
52513;DHT22;38422;53.172;6.974;2024-01-07T21:11:33;-0.70;99.90
52513;DHT22;38422;53.172;6.974;2024-01-07T21:13:59;-0.70;99.90
52513;DHT22;38422;53.172;6.974;2024-01-07T21:16:24;-0.70;99.90
52513;DHT22;38422;53.172;6.974;2024-01-07T21:18:50;-0.70;99.90
52513;DHT22;38422;53.172;6.974;2024-01-07T21:21:16;-0.70;99.90
52513;DHT22;38422;53.172;6.974;2024-01-07T21:23:42;-0.70;99.90
52513;DHT22;38422;53.172;6.974;2024-01-07T21:26:07;-0.70;99.90
52513;DHT22;38422;53.172;6.974;2024-01-07T21:28:33;-0.70;99.90
52513;DHT22;38422;53.172;6.974;2024-01-07T21:31:00;-0.70;99.90
52513;DHT22;38422;53.172;6.974;2024-01-07T21:33:29;-0.70;99.90
52513;DHT22;38422;53.172;6.974;2024-01-07T21:35:54;-0.70;99.90
52513;DHT22;38422;53.172;6.974;2024-01-07T21:38:24;-0.70;99.90
52513;DHT22;38422;53.172;6.974;2024-01-07T21:40:51;-0.70;99.90
52513;DHT22;38422;53.172;6.974;2024-01-07T21:43:19;-0.70;99.90
52513;DHT22;38422;53.172;6.974;2024-01-07T21:45:45;-0.70;99.90
52513;DHT22;38422;53.172;6.974;2024-01-07T21:48:11;-0.70;99.90
52513;DHT22;38422;53.172;6.974;2024-01-07T21:50:36;-0.70;99.90
52513;DHT22;38422;53.172;6.974;2024-01-07T21:53:02;-0.60;99.90
52513;DHT22;38422;53.172;6.974;2024-01-07T21:55:28;-0.60;99.90
52513;DHT22;38422;53.172;6.974;2024-01-07T21:57:53;-0.70;99.90
52513;DHT22;38422;53.172;6.974;2024-01-07T22:00:20;-0.70;99.90
52513;DHT22;38422;53.172;6.974;2024-01-07T22:02:46;-0.70;99.90
52513;DHT22;38422;53.172;6.974;2024-01-07T22:05:12;-0.60;99.90
52513;DHT22;38422;53.172;6.974;2024-01-07T22:07:38;-0.60;99.90
52513;DHT22;38422;53.172;6.974;2024-01-07T22:10:05;-0.60;99.90
52513;DHT22;38422;53.172;6.974;2024-01-07T22:12:31;-0.60;99.90
52513;DHT22;38422;53.172;6.974;2024-01-07T22:14:57;-0.70;99.90
52513;DHT22;38422;53.172;6.974;2024-01-07T22:17:22;-0.70;99.90
52513;DHT22;38422;53.172;6.974;2024-01-07T22:19:48;-0.70;99.90
52513;DHT22;38422;53.172;6.974;2024-01-07T22:22:13;-0.70;99.90
52513;DHT22;38422;53.172;6.974;2024-01-07T22:24:39;-0.70;99.90
52513;DHT22;38422;53.172;6.974;2024-01-07T22:27:05;-0.60;99.90
52513;DHT22;38422;53.172;6.974;2024-01-07T22:29:31;-0.70;99.90
52513;DHT22;38422;53.172;6.974;2024-01-07T22:31:57;-0.70;99.90
52513;DHT22;38422;53.172;6.974;2024-01-07T22:34:22;-0.70;99.90